createdAt,value
2023-02-25T00:01:20.653Z,10.10
2023-02-25T00:03:48.571Z,9.40
2023-02-25T00:06:17.702Z,10.00
2023-02-25T00:08:46.712Z,9.20
2023-02-25T00:11:15.820Z,11.07
2023-02-25T00:13:44.590Z,8.83
2023-02-25T00:16:13.306Z,9.23
2023-02-25T00:18:44.324Z,9.90
2023-02-25T00:21:15.125Z,9.60
2023-02-25T00:23:45.755Z,9.53
2023-02-25T00:26:13.888Z,9.83
2023-02-25T00:28:41.946Z,9.90
2023-02-25T00:31:10.958Z,9.00
2023-02-25T00:33:41.739Z,8.67
2023-02-25T00:36:11.352Z,8.80
2023-02-25T00:38:39.541Z,8.80
2023-02-25T00:41:12.515Z,9.00
2023-02-25T00:43:42.135Z,8.80
2023-02-25T00:46:10.513Z,8.97
2023-02-25T00:48:38.596Z,8.30
2023-02-25T00:51:08.884Z,8.97
2023-02-25T00:53:37.806Z,9.20
2023-02-25T00:56:07.030Z,8.20
2023-02-25T00:58:38.171Z,8.50
2023-02-25T01:01:07.941Z,9.43
2023-02-25T01:03:35.730Z,9.50
2023-02-25T01:06:03.804Z,10.90
2023-02-25T01:08:31.673Z,10.43
2023-02-25T01:10:59.470Z,10.77
2023-02-25T01:13:27.327Z,9.60
2023-02-25T01:15:56.485Z,8.70
2023-02-25T01:18:24.416Z,9.30
2023-02-25T01:20:52.203Z,10.43
2023-02-25T01:23:20.000Z,10.63
2023-02-25T01:25:47.789Z,8.70
2023-02-25T01:28:15.621Z,11.33
2023-02-25T01:30:43.503Z,11.77
2023-02-25T01:33:12.689Z,11.20
2023-02-25T01:35:40.464Z,11.60
2023-02-25T01:38:08.246Z,11.00
2023-02-25T01:40:37.812Z,10.97
2023-02-25T01:43:07.737Z,11.37
2023-02-25T01:45:38.551Z,10.60
2023-02-25T01:48:13.449Z,10.93
2023-02-25T01:50:48.828Z,10.07
2023-02-25T01:53:21.177Z,8.70
2023-02-25T01:55:50.487Z,9.57
2023-02-25T01:58:18.962Z,9.43
2023-02-25T02:00:46.953Z,9.50
2023-02-25T02:03:19.399Z,8.73
2023-02-25T02:05:56.262Z,9.83
2023-02-25T02:08:26.331Z,9.30
2023-02-25T02:10:54.210Z,8.00
2023-02-25T02:13:22.161Z,8.60
2023-02-25T02:16:04.663Z,8.97
2023-02-25T02:18:36.137Z,8.10
2023-02-25T02:21:20.864Z,7.80
2023-02-25T02:24:15.452Z,8.10
2023-02-25T02:26:54.365Z,8.00
2023-02-25T02:29:59.016Z,8.07
2023-02-25T02:32:35.889Z,7.80
2023-02-25T02:35:12.488Z,7.27
2023-02-25T02:37:47.329Z,8.50
2023-02-25T02:40:23.846Z,7.40
2023-02-25T02:43:05.150Z,8.57
2023-02-25T02:45:40.459Z,8.60
2023-02-25T02:48:12.407Z,7.97
2023-02-25T02:50:44.632Z,7.60
2023-02-25T02:53:15.170Z,7.30
2023-02-25T02:55:47.101Z,7.80
2023-02-25T02:58:19.790Z,7.70
2023-02-25T03:00:51.536Z,7.73
2023-02-25T03:03:23.588Z,7.80
2023-02-25T03:05:54.306Z,8.40
2023-02-25T03:08:25.871Z,7.23
2023-02-25T03:10:53.925Z,7.50
2023-02-25T03:13:21.788Z,7.03
2023-02-25T03:15:50.972Z,7.40
2023-02-25T03:18:25.339Z,8.13
2023-02-25T03:20:54.887Z,8.03
2023-02-25T03:23:27.573Z,9.17
2023-02-25T03:26:03.198Z,7.60
2023-02-25T03:28:34.354Z,7.00
2023-02-25T03:31:07.316Z,7.70
2023-02-25T03:33:41.172Z,7.43
2023-02-25T03:36:12.790Z,6.33
2023-02-25T03:38:45.951Z,6.83
2023-02-25T03:41:16.311Z,8.10
2023-02-25T03:43:48.866Z,7.30
2023-02-25T03:46:19.865Z,6.77
2023-02-25T03:48:51.562Z,6.87
2023-02-25T03:51:22.541Z,7.30
2023-02-25T03:53:51.134Z,7.37
2023-02-25T03:56:19.067Z,6.40
2023-02-25T03:58:46.850Z,7.37
2023-02-25T04:01:18.562Z,7.83
2023-02-25T04:03:46.405Z,7.13
2023-02-25T04:06:16.276Z,7.27
2023-02-25T04:08:44.122Z,6.73
2023-02-25T04:11:11.885Z,6.73
2023-02-25T04:13:39.678Z,7.70
2023-02-25T04:16:09.191Z,6.83
2023-02-25T04:18:37.493Z,6.87
2023-02-25T04:21:06.346Z,6.70
2023-02-25T04:23:35.993Z,6.07
2023-02-25T04:26:04.009Z,6.47
2023-02-25T04:28:31.886Z,6.40
2023-02-25T04:30:59.725Z,7.03
2023-02-25T04:33:27.569Z,7.23
2023-02-25T04:35:55.319Z,7.40
2023-02-25T04:38:23.132Z,6.47
2023-02-25T04:40:53.905Z,6.17
2023-02-25T04:43:21.735Z,6.80
2023-02-25T04:45:50.112Z,7.13
2023-02-25T04:48:24.054Z,6.70
2023-02-25T04:50:51.888Z,7.40
2023-02-25T04:53:19.864Z,6.67
2023-02-25T04:55:47.608Z,6.20
2023-02-25T04:58:16.718Z,7.20
2023-02-25T05:00:48.423Z,6.87
2023-02-25T05:03:16.526Z,6.33
2023-02-25T05:05:44.285Z,6.77
2023-02-25T05:08:12.271Z,6.83
2023-02-25T05:10:40.070Z,6.97
2023-02-25T05:13:07.888Z,6.90
2023-02-25T05:15:37.191Z,5.87
2023-02-25T05:18:05.321Z,7.60
2023-02-25T05:20:33.136Z,7.07
2023-02-25T05:23:01.185Z,7.33
2023-02-25T05:25:28.983Z,7.20
2023-02-25T05:27:56.758Z,6.43
2023-02-25T05:30:24.552Z,7.63
2023-02-25T05:32:53.736Z,6.63
2023-02-25T05:35:21.590Z,7.47
2023-02-25T05:37:49.377Z,6.53
2023-02-25T05:40:17.420Z,6.70
2023-02-25T05:42:49.360Z,7.30
2023-02-25T05:45:18.078Z,7.97
2023-02-25T05:47:46.029Z,7.50
2023-02-25T05:50:15.289Z,7.50
2023-02-25T05:52:43.120Z,7.20
2023-02-25T05:55:12.214Z,7.63
2023-02-25T05:57:40.028Z,7.27
2023-02-25T06:00:14.690Z,7.67
2023-02-25T06:02:44.226Z,6.60
2023-02-25T06:05:12.194Z,6.00
2023-02-25T06:07:41.339Z,6.40
2023-02-25T06:10:10.484Z,6.30
2023-02-25T06:12:38.360Z,6.10
2023-02-25T06:15:06.967Z,6.90
2023-02-25T06:17:34.801Z,6.40
2023-02-25T06:20:03.943Z,6.10
2023-02-25T06:22:31.741Z,6.67
2023-02-25T06:25:00.894Z,6.20
2023-02-25T06:27:29.886Z,6.87
2023-02-25T06:30:00.235Z,5.70
2023-02-25T06:32:28.370Z,7.00
2023-02-25T06:34:56.716Z,7.53
2023-02-25T06:37:24.573Z,6.23
2023-02-25T06:39:53.915Z,5.67
2023-02-25T06:42:23.223Z,6.90
2023-02-25T06:44:51.077Z,6.83
2023-02-25T06:47:18.886Z,6.07
2023-02-25T06:49:46.674Z,5.80
2023-02-25T06:52:14.556Z,6.40
2023-02-25T06:54:42.338Z,6.23
2023-02-25T06:57:10.115Z,6.03
2023-02-25T06:59:39.305Z,6.50
2023-02-25T07:02:08.472Z,6.60
2023-02-25T07:04:36.393Z,5.93
2023-02-25T07:07:04.242Z,6.40
2023-02-25T07:09:32.173Z,10.90
2023-02-25T07:12:00.201Z,10.97
2023-02-25T07:14:28.017Z,11.00
2023-02-25T07:16:57.242Z,7.87
2023-02-25T07:19:25.113Z,9.30
2023-02-25T07:21:52.874Z,7.53
2023-02-25T07:24:20.692Z,6.50
2023-02-25T07:26:48.456Z,7.43
2023-02-25T07:29:16.401Z,7.40
2023-02-25T07:31:45.474Z,5.43
2023-02-25T07:34:14.938Z,6.30
2023-02-25T07:36:43.065Z,6.20
2023-02-25T07:39:13.033Z,7.47
2023-02-25T07:41:40.986Z,6.17
2023-02-25T07:44:09.354Z,7.40
2023-02-25T07:46:37.488Z,5.47
2023-02-25T07:49:05.427Z,7.43
2023-02-25T07:51:34.572Z,6.80
2023-02-25T07:54:02.368Z,6.03
2023-02-25T07:56:31.099Z,5.70
2023-02-25T07:58:58.956Z,5.70
2023-02-25T08:01:29.137Z,7.20
2023-02-25T08:03:59.273Z,7.47
2023-02-25T08:06:28.713Z,5.27
2023-02-25T08:08:58.041Z,5.63
2023-02-25T08:11:27.340Z,4.90
2023-02-25T08:13:55.183Z,4.40
2023-02-25T08:16:23.531Z,4.80
2023-02-25T08:18:52.961Z,4.73
2023-02-25T08:21:23.341Z,4.00
2023-02-25T08:23:51.927Z,4.73
2023-02-25T08:26:22.446Z,3.40
2023-02-25T08:28:51.381Z,3.50
2023-02-25T08:31:20.075Z,3.30
2023-02-25T08:33:52.544Z,3.83
2023-02-25T08:36:22.857Z,3.70
2023-02-25T08:38:51.641Z,3.67
2023-02-25T08:41:21.749Z,2.80
2023-02-25T08:43:51.382Z,2.90
2023-02-25T08:46:21.206Z,3.40
2023-02-25T08:48:50.350Z,2.97
2023-02-25T08:51:18.918Z,3.03
2023-02-25T08:53:46.724Z,3.20
2023-02-25T08:56:17.310Z,3.33
2023-02-25T08:58:46.440Z,2.90
2023-02-25T09:01:16.775Z,2.90
2023-02-25T09:03:52.730Z,2.73
2023-02-25T09:06:22.086Z,3.00
2023-02-25T09:08:50.340Z,2.23
2023-02-25T09:11:18.970Z,2.70
2023-02-25T09:13:48.114Z,3.30
2023-02-25T09:16:17.439Z,2.50
2023-02-25T09:18:45.867Z,2.43
2023-02-25T09:21:14.396Z,2.70
2023-02-25T09:23:42.513Z,2.50
2023-02-25T09:26:10.812Z,2.10
2023-02-25T09:28:38.672Z,2.17
2023-02-25T09:31:07.965Z,2.83
2023-02-25T09:33:37.444Z,1.77
2023-02-25T09:36:07.580Z,2.20
2023-02-25T09:38:35.593Z,2.33
2023-02-25T09:41:03.975Z,2.63
2023-02-25T09:43:39.935Z,1.90
2023-02-25T09:46:13.718Z,2.70
2023-02-25T09:48:52.260Z,2.30
2023-02-25T09:51:22.402Z,3.10
2023-02-25T09:53:55.117Z,2.83
2023-02-25T09:56:26.560Z,2.33
2023-02-25T09:58:57.856Z,2.50
2023-02-25T10:01:35.112Z,2.30
2023-02-25T10:04:09.275Z,2.20
2023-02-25T10:06:39.631Z,1.90
2023-02-25T10:09:16.738Z,1.57
2023-02-25T10:11:53.442Z,1.63
2023-02-25T10:14:40.004Z,2.43
2023-02-25T10:17:18.766Z,2.53
2023-02-25T10:20:05.191Z,1.90
2023-02-25T10:22:46.170Z,2.03
2023-02-25T10:25:17.876Z,2.27
2023-02-25T10:27:49.425Z,1.97
2023-02-25T10:30:24.429Z,2.40
2023-02-25T10:32:55.025Z,2.13
2023-02-25T10:35:27.060Z,2.50
2023-02-25T10:37:54.938Z,2.20
2023-02-25T10:40:24.629Z,2.20
2023-02-25T10:42:55.301Z,2.20
2023-02-25T10:45:26.959Z,1.87
2023-02-25T10:48:14.930Z,2.37
2023-02-25T10:50:46.212Z,3.40
2023-02-25T10:53:16.374Z,2.30
2023-02-25T10:55:52.615Z,3.40
2023-02-25T10:58:27.487Z,2.40
2023-02-25T11:00:59.577Z,2.80
2023-02-25T11:03:32.034Z,2.00
2023-02-25T11:06:11.973Z,2.63
2023-02-25T11:08:40.701Z,1.90
2023-02-25T11:11:17.016Z,1.57
2023-02-25T11:13:45.478Z,1.80
2023-02-25T11:16:15.327Z,1.70
2023-02-25T11:18:44.509Z,1.70
2023-02-25T11:21:15.300Z,2.03
2023-02-25T11:23:47.345Z,1.80
2023-02-25T11:26:18.156Z,1.70
2023-02-25T11:28:49.129Z,2.10
2023-02-25T11:31:19.382Z,5.33
2023-02-25T11:33:57.252Z,2.40
2023-02-25T11:36:30.234Z,3.60
2023-02-25T11:39:09.129Z,1.97
2023-02-25T11:41:37.257Z,2.13
2023-02-25T11:44:30.730Z,1.63
2023-02-25T11:47:22.502Z,1.90
2023-02-25T11:50:08.023Z,2.00
2023-02-25T11:52:41.680Z,2.50
2023-02-25T11:55:21.969Z,2.20
2023-02-25T11:58:02.692Z,2.83
